6A1

Butler Municipal Airport

Butler, Georgia, USA
METAR K6A1 241915Z AUTO 10008KT 10SM 32/18 A3006 RMK AO2 LTG DSNT W T03180181
Observed Flight Rules
Sep-24 @ 19:15 UTC (18 minutes ago)
Wind Visibility
100° at 8 knots 10 miles
Temperatures Readings
Current 32°C / 90°F
Dewpoint 18°C / 64°F
Humidity 43%
Altimeter 30.06" Hg
Pressure 1018 hPa
Elevation 203
METAR K6A1 241915Z AUTO 10008KT 10SM 32/18 A3006 RMK AO2 LTG DSNT W T03180181
Observed Flight Rules
Sep-24 @ 19:15 UTC
(18 minutes ago)
Wind Visibility
100° at 8 knots 10 miles
Temperature Dewpoint
32°C / 90°F 18°C / 64°F
Humidity Altimeter Pressure
43% 30.06" Hg 1018 hPa